Time;durP1;ratioP1;P1;durP2;ratioP2;P2;SDS_P1;SDS_P2;PMS_P1;PMS_P2;Temp;Humidity;BMP_temperature;BMP_pressure;BME280_temperature;BME280_humidity;BME280_pressure;Samples;Min_cycle;Max_cycle;Signal;HPM_P1;HPM_P2
2023/12/01 06:18:55;;;;;;;;;;;;;;;8.22;84.90;95203.00;4244220;27;10395;-75
2023/12/01 06:20:58;;;;;;;;;;;;;;;8.51;84.47;95205.00;4247537;27;5816;-76
2023/12/01 06:23:05;;;;;;;;;;;;;;;8.74;83.32;95207.78;4251620;27;5669;-75
2023/12/01 06:25:09;;;;;;;;;;;;;;;8.94;83.11;95214.63;4248001;27;5654;-75
2023/12/01 06:27:12;;;;;;;;;;;;;;;9.08;82.39;95202.91;4247628;27;5650;-76
2023/12/01 06:29:16;;;;;;;;;;;;;;;9.19;81.74;95204.81;4245172;27;5646;-75
2023/12/01 06:31:19;;;;;;;;;;;;;;;9.30;81.37;95206.69;4241773;27;5920;-75
2023/12/01 06:33:23;;;;;;;;;;;;;;;9.37;81.03;95214.50;4247553;27;5646;-75
2023/12/01 06:35:28;;;;;;;;;;;;;;;9.43;80.15;95224.16;4246462;27;5604;-75
2023/12/01 06:37:31;;;;;;;;;;;;;;;9.46;79.79;95228.97;4246391;27;5743;-75
2023/12/01 06:39:33;;;;;;;;;;;;;;;9.48;79.59;95215.56;4237213;27;5663;-76
2023/12/01 06:41:36;;;;;;;;;;;;;;;9.52;79.26;95233.38;4240962;27;5753;-75
2023/12/01 06:43:39;;;;;;;;;;;;;;;9.55;79.26;95229.47;4248397;27;5781;-76
2023/12/01 06:45:42;;;;;;;;;;;;;;;9.56;79.20;95228.44;4248844;27;5633;-75
2023/12/01 06:47:49;;;;;;;;;;;;;;;9.58;79.15;95229.03;4248467;27;5721;-76
2023/12/01 06:49:51;;;;;;;;;;;;;;;9.60;79.25;95224.31;4248210;27;5878;-75
2023/12/01 06:51:56;;;;;;;;;;;;;;;9.63;78.89;95229.16;4248653;27;6825;-75
2023/12/01 06:53:59;;;;;;;;;;;;;;;9.65;78.77;95231.56;4248555;27;5646;-75
2023/12/01 06:56:02;;;;;;;;;;;;;;;9.68;78.43;95226.66;4248261;27;5653;-75
2023/12/01 06:58:09;;;;;;;;;;;;;;;9.70;78.44;95229.84;4245819;27;5654;-75
2023/12/01 07:00:28;;;;;;;;;;;;;;;9.72;78.26;95226.97;4248456;27;5662;-75
2023/12/01 07:02:34;;;;;;;;;;;;;;;9.73;78.02;95223.31;4248132;27;5634;-76
2023/12/01 07:04:37;;;;;;;;;;;;;;;9.74;77.78;95228.41;4248369;27;5666;-74
2023/12/01 07:06:46;;;;;;;;;;;;;;;9.77;77.56;95230.56;4247990;27;5775;-75
2023/12/01 07:08:50;;;;;;;;;;;;;;;9.76;77.26;95234.25;4248050;27;5234;-76
2023/12/01 07:10:53;;;;;;;;;;;;;;;9.76;76.98;95234.25;4247911;27;7699;-75
2023/12/01 07:12:55;;;;;;;;;;;;;;;9.76;77.20;95246.63;4248098;27;5657;-75
2023/12/01 07:14:58;;;;;;;;;;;;;;;9.79;76.92;95243.53;4247797;27;5642;-75
2023/12/01 07:17:01;;;;;;;;;;;;;;;9.78;76.91;95242.75;4247720;27;5777;-75
2023/12/01 07:19:05;;;;;;;;;;;;;;;9.78;76.76;95247.22;4241004;27;5820;-76
2023/12/01 07:21:10;;;;;;;;;;;;;;;9.77;76.31;95240.31;4236741;28;5638;-76
2023/12/01 07:23:13;;;;;;;;;;;;;;;9.78;76.30;95242.75;4236690;28;6354;-75
2023/12/01 07:25:22;;;;;;;;;;;;;;;9.77;76.13;95233.22;4236638;28;5092;-76
2023/12/01 07:27:27;;;;;;;;;;;;;;;9.78;76.10;95232.19;4236390;28;7687;-75
2023/12/01 07:29:30;;;;;;;;;;;;;;;9.79;75.95;95232.97;4236514;27;5646;-75
2023/12/01 07:31:34;;;;;;;;;;;;;;;9.80;75.63;95235.38;4236427;28;5650;-76
2023/12/01 07:33:37;;;;;;;;;;;;;;;9.80;75.86;95239.88;4236397;28;5790;-75
2023/12/01 07:35:40;;;;;;;;;;;;;;;9.81;75.61;95237.00;4236142;28;5654;-75
2023/12/01 07:37:44;;;;;;;;;;;;;;;9.79;75.49;95231.16;4235817;28;5761;-75
2023/12/01 07:39:46;;;;;;;;;;;;;;;9.82;75.29;95243.88;4236212;28;5651;-76
2023/12/01 07:41:51;;;;;;;;;;;;;;;9.81;74.97;95234.34;4236238;28;5677;-75
2023/12/01 07:43:55;;;;;;;;;;;;;;;9.81;74.77;95237.00;4236132;28;5746;-75
2023/12/01 07:45:58;;;;;;;;;;;;;;;9.81;74.65;95233.56;4236127;28;5748;-76
2023/12/01 07:48:01;;;;;;;;;;;;;;;9.82;74.98;95229.88;4236043;27;5658;-75
2023/12/01 07:50:05;;;;;;;;;;;;;;;9.82;74.92;95221.97;4236230;28;5646;-75
2023/12/01 07:52:08;;;;;;;;;;;;;;;9.83;74.48;95228.84;4235966;28;5866;-76
2023/12/01 07:54:11;;;;;;;;;;;;;;;9.83;74.41;95229.66;4235482;28;5793;-75
2023/12/01 07:56:21;;;;;;;;;;;;;;;9.85;74.63;95237.34;4235333;28;5741;-75
2023/12/01 07:58:26;;;;;;;;;;;;;;;9.85;74.18;95237.34;4231541;28;5736;-75
2023/12/01 08:00:28;;;;;;;;;;;;;;;9.86;74.13;95233.69;4235810;28;5664;-75
2023/12/01 08:02:31;;;;;;;;;;;;;;;9.86;74.00;95234.50;4234897;28;5645;-75
2023/12/01 08:04:34;;;;;;;;;;;;;;;9.86;73.82;95249.53;4233961;28;5650;-75
2023/12/01 08:06:36;;;;;;;;;;;;;;;9.84;73.51;95254.22;4229878;28;6442;-75
2023/12/01 08:08:39;;;;;;;;;;;;;;;9.81;72.88;95258.13;4218609;28;5663;-74
2023/12/01 08:10:42;;;;;;;;;;;;;;;9.80;73.10;95255.69;4233154;28;5724;-75
2023/12/01 08:12:46;;;;;;;;;;;;;;;9.82;73.40;95253.63;4232764;28;5095;-75
2023/12/01 08:14:51;;;;;;;;;;;;;;;9.82;73.42;95249.16;4226210;28;5671;-76
2023/12/01 08:16:54;;;;;;;;;;;;;;;9.84;72.95;95254.22;4225783;28;5670;-75
2023/12/01 08:18:58;;;;;;;;;;;;;;;9.83;73.05;95253.41;4226603;28;5666;-76
2023/12/01 08:21:02;;;;;;;;;;;;;;;9.83;72.76;95240.22;4233086;28;5873;-76
2023/12/01 08:23:05;;;;;;;;;;;;;;;9.84;73.16;95241.81;4229539;28;5642;-75
2023/12/01 08:25:09;;;;;;;;;;;;;;;9.85;73.01;95246.09;4235526;28;5649;-76
2023/12/01 08:27:12;;;;;;;;;;;;;;;9.86;72.61;95242.41;4233289;27;5753;-74
2023/12/01 08:29:15;;;;;;;;;;;;;;;9.87;72.52;95235.31;4229470;28;5119;-75
2023/12/01 08:31:21;;;;;;;;;;;;;;;9.86;72.71;95237.13;4235024;28;5653;-75
2023/12/01 08:33:24;;;;;;;;;;;;;;;9.86;72.36;95234.50;4234707;28;5776;-75
2023/12/01 08:35:27;;;;;;;;;;;;;;;9.87;72.48;95244.03;4230689;28;5692;-74
2023/12/01 08:37:30;;;;;;;;;;;;;;;9.88;72.35;95244.84;4219025;28;7521;-75
2023/12/01 08:39:33;;;;;;;;;;;;;;;9.88;72.25;95239.56;4222673;28;5730;-75
2023/12/01 08:41:36;;;;;;;;;;;;;;;9.88;71.86;95227.16;4230832;28;5646;-75
2023/12/01 08:43:39;;;;;;;;;;;;;;;9.88;72.04;95229.78;4220342;28;5667;-75
2023/12/01 08:45:42;;;;;;;;;;;;;;;9.89;71.74;95228.75;4234823;28;6371;-75
2023/12/01 08:47:47;;;;;;;;;;;;;;;9.89;71.64;95225.31;4235473;28;5670;-75
2023/12/01 08:49:50;;;;;;;;;;;;;;;9.91;71.86;95225.91;4229285;27;5774;-71
2023/12/01 08:51:55;;;;;;;;;;;;;;;9.90;71.80;95219.81;4229996;27;5660;-83
2023/12/01 08:53:58;;;;;;;;;;;;;;;9.89;71.85;95218.19;4229015;28;5661;-79
2023/12/01 08:56:01;;;;;;;;;;;;;;;9.90;71.56;95219.81;4230559;28;5730;-79
2023/12/01 08:58:04;;;;;;;;;;;;;;;9.91;71.40;95218.78;4235750;28;5670;-77
2023/12/01 09:00:08;;;;;;;;;;;;;;;9.91;71.67;95210.06;4236215;27;5815;-86
2023/12/01 09:02:11;;;;;;;;;;;;;;;9.91;71.14;95225.91;4235918;27;5659;-83
2023/12/01 09:04:17;;;;;;;;;;;;;;;9.92;71.48;95219.56;4228865;28;5657;-84
2023/12/01 09:06:21;;;;;;;;;;;;;;;9.92;71.57;95204.53;4235642;28;5650;-89
2023/12/01 09:08:23;;;;;;;;;;;;;;;9.92;70.96;95201.91;4226120;28;5726;-89
2023/12/01 09:10:27;;;;;;;;;;;;;;;9.92;71.13;95199.25;4226885;28;5642;-82
2023/12/01 09:12:30;;;;;;;;;;;;;;;9.91;70.73;95199.50;4237639;27;5635;-71
2023/12/01 09:14:33;;;;;;;;;;;;;;;9.91;71.12;95200.31;4235431;28;5760;-78
2023/12/01 09:16:35;;;;;;;;;;;;;;;9.91;71.11;95212.69;4232351;27;6331;-83
2023/12/01 09:18:37;;;;;;;;;;;;;;;9.92;70.94;95209.03;4235976;28;5633;-85
2023/12/01 09:20:42;;;;;;;;;;;;;;;9.92;70.94;95207.19;4233448;28;5678;-83
2023/12/01 09:22:45;;;;;;;;;;;;;;;9.93;70.60;95200.06;4232386;28;5798;-87
2023/12/01 09:24:48;;;;;;;;;;;;;;;9.95;70.94;95194.56;4228438;28;5662;-81
2023/12/01 09:26:51;;;;;;;;;;;;;;;9.95;70.71;95202.47;4233987;28;5753;-84
2023/12/01 09:28:53;;;;;;;;;;;;;;;9.96;70.80;95201.44;4234502;28;5753;-82
2023/12/01 09:30:56;;;;;;;;;;;;;;;9.96;70.70;95212.81;4226001;28;5650;-84
2023/12/01 09:32:58;;;;;;;;;;;;;;;9.96;70.45;95199.59;4236585;28;5624;-86
2023/12/01 09:35:02;;;;;;;;;;;;;;;9.97;70.51;95208.34;4236601;27;5635;-83
2023/12/01 09:37:07;;;;;;;;;;;;;;;9.97;70.43;95213.63;4235580;28;5654;-77
2023/12/01 09:39:10;;;;;;;;;;;;;;;9.96;70.30;95212.00;4234994;28;5824;-75
2023/12/01 09:41:14;;;;;;;;;;;;;;;9.96;70.12;95225.19;4234508;28;5784;-78
2023/12/01 09:43:18;;;;;;;;;;;;;;;9.96;70.15;95225.19;4235391;28;5737;-78
2023/12/01 09:45:26;;;;;;;;;;;;;;;9.94;69.73;95233.34;4234952;28;5725;-78
2023/12/01 09:47:32;;;;;;;;;;;;;;;9.92;69.87;95233.59;4235592;28;5649;-79
2023/12/01 09:49:35;;;;;;;;;;;;;;;9.90;69.65;95233.00;4234358;27;5786;-76
2023/12/01 09:51:38;;;;;;;;;;;;;;;9.90;69.70;95235.66;4225646;28;5805;-78
2023/12/01 09:53:42;;;;;;;;;;;;;;;9.89;69.34;95228.75;4224904;27;5878;-74
2023/12/01 09:55:45;;;;;;;;;;;;;;;9.88;69.61;95231.63;4235367;28;5799;-78
2023/12/01 09:57:50;;;;;;;;;;;;;;;9.85;69.34;95226.78;4228872;28;5936;-77
2023/12/01 09:59:53;;;;;;;;;;;;;;;9.84;69.38;95220.69;4231806;28;5654;-72
2023/12/01 10:01:56;;;;;;;;;;;;;;;9.86;69.32;95221.31;4225796;28;5826;-72
2023/12/01 10:03:59;;;;;;;;;;;;;;;9.86;69.04;95213.38;4236246;28;5737;-87
2023/12/01 10:06:04;;;;;;;;;;;;;;;9.88;68.98;95223.72;4232426;28;5112;-88
2023/12/01 10:08:07;;;;;;;;;;;;;;;9.88;69.04;95215.78;4230030;27;5635;-89
2023/12/01 10:10:20;;;;;;;;;;;;;;;9.88;68.83;95213.16;4232330;28;5625;-86
2023/12/01 10:12:23;;;;;;;;;;;;;;;9.89;69.11;95218.19;4239751;27;5652;-79
2023/12/01 10:14:25;;;;;;;;;;;;;;;9.89;68.96;95218.19;4234454;27;5639;-81
2023/12/01 10:16:35;;;;;;;;;;;;;;;9.88;69.13;95208.69;4229309;28;5678;-81
2023/12/01 10:18:38;;;;;;;;;;;;;;;9.89;69.09;95207.66;4230819;28;5714;-81
2023/12/01 10:20:55;;;;;;;;;;;;;;;9.90;69.23;95209.25;4226565;28;5650;-81
2023/12/01 10:22:58;;;;;;;;;;;;;;;9.93;69.12;95208.78;4227569;28;5705;-83
2023/12/01 10:25:04;;;;;;;;;;;;;;;9.93;69.25;95187.66;4229229;27;5658;-79
2023/12/01 10:27:09;;;;;;;;;;;;;;;9.95;69.02;95191.91;4227273;28;5662;-79
2023/12/01 10:29:24;;;;;;;;;;;;;;;9.96;69.32;95190.88;4233135;27;6172;-78
2023/12/01 10:31:27;;;;;;;;;;;;;;;9.97;69.22;95193.31;4233249;28;5646;-76
2023/12/01 10:33:31;;;;;;;;;;;;;;;9.98;69.03;95191.47;4231545;28;5642;-76
2023/12/01 10:35:34;;;;;;;;;;;;;;;9.96;69.00;95180.31;4226906;28;5643;-74
2023/12/01 10:37:38;;;;;;;;;;;;;;;9.97;69.19;95177.47;4230165;27;5068;-75
2023/12/01 10:39:44;;;;;;;;;;;;;;;9.98;69.26;95178.28;4232913;28;5721;-80
2023/12/01 10:41:47;;;;;;;;;;;;;;;9.99;69.14;95185.16;4229377;28;5650;-73
2023/12/01 10:43:52;;;;;;;;;;;;;;;9.97;68.95;95179.31;4233874;28;5846;-75
2023/12/01 10:46:00;;;;;;;;;;;;;;;9.98;69.14;95175.66;4235809;28;5646;-75
2023/12/01 10:48:03;;;;;;;;;;;;;;;10.00;69.06;95168.28;4236174;28;5662;-76
2023/12/01 10:50:07;;;;;;;;;;;;;;;10.00;68.92;95169.09;4230653;28;5650;-76
2023/12/01 10:52:12;;;;;;;;;;;;;;;9.99;68.87;95159.56;4232632;28;6055;-78
2023/12/01 10:54:15;;;;;;;;;;;;;;;10.00;69.02;95174.38;4232459;28;5853;-78
2023/12/01 10:56:21;;;;;;;;;;;;;;;9.99;68.45;95166.69;4238069;28;5744;-77
2023/12/01 10:58:26;;;;;;;;;;;;;;;9.95;68.63;95170.81;4236772;28;5769;-79
2023/12/01 11:00:33;;;;;;;;;;;;;;;9.94;68.31;95172.63;4228522;28;5661;-75
2023/12/01 11:02:39;;;;;;;;;;;;;;;9.93;68.25;95168.41;4236653;28;5748;-80
2023/12/01 11:04:45;;;;;;;;;;;;;;;9.92;68.00;95158.88;4238311;28;5803;-76
2023/12/01 11:07:01;;;;;;;;;;;;;;;9.88;67.78;95168.28;4233837;28;5786;-73
2023/12/01 11:09:12;;;;;;;;;;;;;;;9.84;67.62;95167.13;4229249;27;6383;-73
2023/12/01 11:11:25;;;;;;;;;;;;;;;9.84;67.63;95167.91;4234700;28;5859;-73
2023/12/01 11:13:37;;;;;;;;;;;;;;;9.87;67.73;95162.19;4235323;27;6716;-74
2023/12/01 11:15:42;;;;;;;;;;;;;;;9.87;67.38;95156.13;4233461;28;5758;-74
2023/12/01 11:17:46;;;;;;;;;;;;;;;9.86;67.63;95154.53;4236593;28;5677;-73
2023/12/01 11:19:49;;;;;;;;;;;;;;;9.87;67.31;95150.84;4236877;28;5637;-73
2023/12/01 11:21:57;;;;;;;;;;;;;;;9.86;67.44;95138.69;4230232;28;5675;-73
2023/12/01 11:24:25;;;;;;;;;;;;;;;9.88;67.34;95139.25;4233971;28;5717;-73
2023/12/01 11:26:31;;;;;;;;;;;;;;;9.89;67.00;95140.84;4236468;28;5820;-73
2023/12/01 11:28:43;;;;;;;;;;;;;;;9.86;67.15;95138.69;4236373;28;5722;-74
2023/12/01 11:31:19;;;;;;;;;;;;;;;9.87;66.98;95135.81;4236374;28;5673;-74
2023/12/01 11:33:32;;;;;;;;;;;;;;;9.89;66.82;95127.66;4181246;28;5673;-73
2023/12/01 11:35:35;;;;;;;;;;;;;;;9.88;66.78;95126.84;4181189;28;6455;-73
2023/12/01 11:37:59;;;;;;;;;;;;;;;9.87;67.02;95133.16;4174624;28;5876;-73
2023/12/01 11:40:20;;;;;;;;;;;;;;;9.85;66.74;95135.25;4170413;28;5744;-73
2023/12/01 11:42:23;;;;;;;;;;;;;;;9.84;66.64;95138.88;4171020;28;6407;-73
2023/12/01 11:44:29;;;;;;;;;;;;;;;9.84;66.44;95135.44;4172349;28;5824;-72
2023/12/01 11:46:34;;;;;;;;;;;;;;;9.82;66.75;95127.75;4169861;28;5691;-73
2023/12/01 11:48:37;;;;;;;;;;;;;;;9.81;66.53;95126.16;4169685;28;6397;-73
2023/12/01 11:50:41;;;;;;;;;;;;;;;9.81;66.52;95134.06;4156683;28;5691;-73
2023/12/01 11:52:45;;;;;;;;;;;;;;;9.81;66.48;95135.91;4170411;28;5795;-74
2023/12/01 11:54:48;;;;;;;;;;;;;;;9.80;66.49;95129.81;4172011;28;5775;-75
2023/12/01 11:56:53;;;;;;;;;;;;;;;9.79;65.97;95133.50;4175963;28;5681;-74
2023/12/01 11:58:56;;;;;;;;;;;;;;;9.76;66.34;95141.88;4174675;28;6640;-74
2023/12/01 12:00:59;;;;;;;;;;;;;;;9.76;65.99;95144.53;4180440;28;5692;-74
2023/12/01 12:03:19;;;;;;;;;;;;;;;9.71;65.85;95133.81;4182313;28;5851;-74
2023/12/01 12:05:22;;;;;;;;;;;;;;;9.71;65.82;95135.66;4182866;28;5761;-74
2023/12/01 12:07:26;;;;;;;;;;;;;;;9.71;65.97;95125.91;4183367;28;5681;-74
2023/12/01 12:09:31;;;;;;;;;;;;;;;9.75;65.59;95132.34;4210189;28;5681;-74
2023/12/01 12:11:34;;;;;;;;;;;;;;;9.72;65.30;95127.50;4232588;28;6108;-74
2023/12/01 12:13:37;;;;;;;;;;;;;;;9.71;65.63;95127.75;4224880;27;5822;-74
2023/12/01 12:15:40;;;;;;;;;;;;;;;9.66;65.43;95123.16;4224146;27;5654;-74
2023/12/01 12:17:43;;;;;;;;;;;;;;;9.60;65.33;95124.88;4229865;28;5817;-74
2023/12/01 12:19:53;;;;;;;;;;;;;;;9.58;65.64;95126.13;4234309;28;5873;-75
2023/12/01 12:22:04;;;;;;;;;;;;;;;9.60;65.57;95132.78;4227905;28;5641;-75
2023/12/01 12:24:06;;;;;;;;;;;;;;;9.62;65.54;95136.00;4233793;28;5703;-79
2023/12/01 12:26:17;;;;;;;;;;;;;;;9.57;64.57;95127.16;4239168;28;5642;-81
2023/12/01 12:28:21;;;;;;;;;;;;;;;9.48;64.89;95125.88;4236003;28;6054;-78
2023/12/01 12:30:24;;;;;;;;;;;;;;;9.49;65.16;95123.00;4236125;27;5752;-79
2023/12/01 12:32:27;;;;;;;;;;;;;;;9.52;65.09;95137.59;4236363;28;5654;-75
2023/12/01 12:34:30;;;;;;;;;;;;;;;9.52;65.17;95140.25;4235439;27;5637;-77
2023/12/01 12:36:37;;;;;;;;;;;;;;;9.55;65.38;95137.94;4235368;28;5654;-76
2023/12/01 12:38:39;;;;;;;;;;;;;;;9.57;65.16;95143.78;4228055;27;5585;-77
2023/12/01 12:40:42;;;;;;;;;;;;;;;9.58;64.91;95140.13;4235859;28;5733;-77
2023/12/01 12:42:56;;;;;;;;;;;;;;;9.59;65.21;95138.28;4235915;28;5601;-76
2023/12/01 12:44:58;;;;;;;;;;;;;;;9.64;65.04;95141.06;4233214;28;5665;-77
2023/12/01 12:47:03;;;;;;;;;;;;;;;9.65;65.14;95155.88;4235383;28;6303;-75
2023/12/01 12:49:10;;;;;;;;;;;;;;;9.67;65.00;95145.06;4228355;28;5667;-73
2023/12/01 12:51:14;;;;;;;;;;;;;;;9.69;65.37;95149.09;4235039;28;5705;-75
2023/12/01 12:53:19;;;;;;;;;;;;;;;9.70;64.91;95149.88;4231246;28;5887;-74
2023/12/01 12:55:26;;;;;;;;;;;;;;;9.67;65.08;95159.06;4234864;28;5847;-75
2023/12/01 12:57:29;;;;;;;;;;;;;;;9.67;65.03;95156.44;4239631;27;5683;-76
2023/12/01 12:59:32;;;;;;;;;;;;;;;9.67;64.78;95153.00;4235642;27;7609;-79
2023/12/01 13:01:36;;;;;;;;;;;;;;;9.66;64.91;95148.75;4226565;27;5835;-77
2023/12/01 13:03:39;;;;;;;;;;;;;;;9.64;64.85;95146.34;4227876;27;7728;-83
2023/12/01 13:05:42;;;;;;;;;;;;;;;9.64;64.68;95135.78;4228895;27;5675;-81
2023/12/01 13:07:47;;;;;;;;;;;;;;;9.65;65.01;95136.59;4231815;27;5602;-84
2023/12/01 13:09:51;;;;;;;;;;;;;;;9.67;64.59;95139.81;4231235;27;5878;-77
2023/12/01 13:11:54;;;;;;;;;;;;;;;9.69;64.56;95138.53;4227020;27;5638;-79
2023/12/01 13:13:57;;;;;;;;;;;;;;;9.71;64.57;95141.75;4229847;27;5962;-77
2023/12/01 13:15:59;;;;;;;;;;;;;;;9.72;64.67;95137.28;4236552;27;5779;-77
2023/12/01 13:18:03;;;;;;;;;;;;;;;9.72;64.61;95134.63;4231713;27;5642;-77
2023/12/01 13:20:07;;;;;;;;;;;;;;;9.68;64.36;95136.94;4230182;27;5711;-79
2023/12/01 13:22:10;;;;;;;;;;;;;;;9.69;64.49;95140.38;4220844;27;5655;-77
2023/12/01 13:24:13;;;;;;;;;;;;;;;9.67;64.41;95130.03;4234964;28;5724;-82
2023/12/01 13:26:17;;;;;;;;;;;;;;;9.65;64.58;95128.66;4233786;28;5103;-81
2023/12/01 13:28:21;;;;;;;;;;;;;;;9.65;64.53;95140.03;4236383;28;5721;-84
2023/12/01 13:30:23;;;;;;;;;;;;;;;9.65;64.66;95133.94;4236542;27;5095;-78
2023/12/01 13:32:26;;;;;;;;;;;;;;;9.63;64.49;95134.97;4235936;28;7780;-82
2023/12/01 13:34:29;;;;;;;;;;;;;;;9.62;64.63;95140.47;4237254;28;5654;-83
2023/12/01 13:36:32;;;;;;;;;;;;;;;9.63;64.66;95136.81;4237303;28;5646;-81
2023/12/01 13:38:34;;;;;;;;;;;;;;;9.63;64.30;95128.91;4227571;28;5649;-79
2023/12/01 13:40:38;;;;;;;;;;;;;;;9.61;64.52;95120.38;4234325;27;5677;-78
2023/12/01 13:42:43;;;;;;;;;;;;;;;9.60;64.31;95129.34;4235706;27;5840;-76
2023/12/01 13:44:46;;;;;;;;;;;;;;;9.61;64.53;95128.31;4235207;28;5654;-79
2023/12/01 13:46:49;;;;;;;;;;;;;;;9.61;64.23;95141.50;4242677;27;5637;-77
2023/12/01 13:48:52;;;;;;;;;;;;;;;9.58;64.41;95137.47;4236969;27;5730;-80
2023/12/01 13:50:55;;;;;;;;;;;;;;;9.58;64.51;95144.59;4229297;28;5654;-75
2023/12/01 13:53:00;;;;;;;;;;;;;;;9.57;64.58;95140.34;4239260;28;5655;-79
2023/12/01 13:55:02;;;;;;;;;;;;;;;9.55;64.40;95142.41;4237034;28;5753;-79
2023/12/01 13:57:05;;;;;;;;;;;;;;;9.54;64.62;95151.38;4221611;28;5671;-78
2023/12/01 13:59:09;;;;;;;;;;;;;;;9.55;64.42;95155.59;4239515;28;5650;-80
2023/12/01 14:01:12;;;;;;;;;;;;;;;9.53;64.52;95150.56;4230051;28;5753;-79
2023/12/01 14:03:15;;;;;;;;;;;;;;;9.54;64.67;95146.09;4227087;28;5690;-77
2023/12/01 14:05:30;;;;;;;;;;;;;;;9.55;64.35;95142.41;4233839;28;5642;-80
2023/12/01 14:07:33;;;;;;;;;;;;;;;9.52;64.48;95148.16;4238596;27;5734;-83
2023/12/01 14:09:36;;;;;;;;;;;;;;;9.53;64.75;95141.84;4235334;28;5779;-80
2023/12/01 14:11:39;;;;;;;;;;;;;;;9.53;64.62;95145.28;4231690;28;5646;-81
2023/12/01 14:13:42;;;;;;;;;;;;;;;9.53;64.71;95134.75;4235048;27;5705;-80
2023/12/01 14:15:46;;;;;;;;;;;;;;;9.55;64.53;95147.69;4226220;28;5655;-78
2023/12/01 14:17:49;;;;;;;;;;;;;;;9.55;64.69;95147.69;4228686;27;5661;-75
2023/12/01 14:19:51;;;;;;;;;;;;;;;9.56;64.59;95149.31;4225194;27;5647;-69
2023/12/01 14:21:54;;;;;;;;;;;;;;;9.58;64.52;95152.50;4224931;27;5638;-73
2023/12/01 14:23:57;;;;;;;;;;;;;;;9.60;65.01;95134.63;4220712;27;5808;-74
2023/12/01 14:26:00;;;;;;;;;;;;;;;9.60;64.87;95119.59;4226881;27;5683;-71
2023/12/01 14:28:03;;;;;;;;;;;;;;;9.58;64.64;95126.94;4221055;27;5667;-68
2023/12/01 14:30:07;;;;;;;;;;;;;;;9.56;65.07;95122.91;4229347;28;5776;-68
2023/12/01 14:32:11;;;;;;;;;;;;;;;9.57;64.91;95113.97;4235611;27;5635;-69
2023/12/01 14:34:23;;;;;;;;;;;;;;;9.60;64.85;95110.88;4231205;27;5765;-68
2023/12/01 14:36:26;;;;;;;;;;;;;;;9.62;64.84;95112.25;4232365;27;5817;-69
2023/12/01 14:38:29;;;;;;;;;;;;;;;9.64;64.65;95101.50;4235251;27;5737;-69
2023/12/01 14:40:33;;;;;;;;;;;;;;;9.64;64.85;95090.94;4236337;28;5653;-69
2023/12/01 14:42:36;;;;;;;;;;;;;;;9.63;65.05;95082.22;4236393;28;5717;-70
2023/12/01 14:44:39;;;;;;;;;;;;;;;9.62;64.74;95096.41;4236795;28;6339;-70
2023/12/01 14:46:41;;;;;;;;;;;;;;;9.66;64.89;95117.09;4233672;27;5639;-69
2023/12/01 14:48:46;;;;;;;;;;;;;;;9.65;64.94;95112.84;4235886;28;7194;-69
2023/12/01 14:50:50;;;;;;;;;;;;;;;9.65;65.03;95113.66;4230180;27;5682;-70
2023/12/01 14:52:53;;;;;;;;;;;;;;;9.65;64.72;95116.28;4232726;28;5725;-69
2023/12/01 14:54:56;;;;;;;;;;;;;;;9.66;65.20;95114.44;4230777;28;5733;-69
2023/12/01 14:56:58;;;;;;;;;;;;;;;9.65;64.90;95105.72;4229258;27;5678;-68
2023/12/01 14:59:03;;;;;;;;;;;;;;;9.63;64.72;95113.88;4232346;27;5706;-68
2023/12/01 15:01:06;;;;;;;;;;;;;;;9.59;64.92;95109.25;4231030;27;5784;-69
2023/12/01 15:03:09;;;;;;;;;;;;;;;9.55;64.78;95114.19;4234561;28;5634;-68
2023/12/01 15:05:13;;;;;;;;;;;;;;;9.53;65.02;95115.47;4228091;27;5283;-68
2023/12/01 15:07:15;;;;;;;;;;;;;;;9.52;64.73;95122.56;4235527;28;5639;-68
2023/12/01 15:09:18;;;;;;;;;;;;;;;9.51;65.06;95120.13;4227185;27;5730;-68
2023/12/01 15:11:23;;;;;;;;;;;;;;;9.52;64.75;95132.31;4234299;28;5811;-68
2023/12/01 15:13:26;;;;;;;;;;;;;;;9.51;64.85;95126.25;4235361;28;7705;-68
2023/12/01 15:15:28;;;;;;;;;;;;;;;9.48;64.73;95126.69;4234728;27;7823;-68
2023/12/01 15:17:31;;;;;;;;;;;;;;;9.45;64.94;95126.34;4233290;27;5709;-68
2023/12/01 15:19:35;;;;;;;;;;;;;;;9.42;65.10;95124.97;4235205;28;5665;-69
2023/12/01 15:21:41;;;;;;;;;;;;;;;9.40;64.94;95119.13;4227965;28;5703;-69
2023/12/01 15:23:44;;;;;;;;;;;;;;;9.39;65.19;95124.59;4231095;28;5908;-69
2023/12/01 15:25:47;;;;;;;;;;;;;;;9.41;65.44;95122.56;4229721;27;5736;-69
2023/12/01 15:27:50;;;;;;;;;;;;;;;9.44;65.21;95120.25;4231321;27;5654;-70
2023/12/01 15:29:53;;;;;;;;;;;;;;;9.43;65.15;95123.94;4228314;28;5676;-70
2023/12/01 15:31:55;;;;;;;;;;;;;;;9.41;65.29;95130.47;4218733;28;5659;-69
2023/12/01 15:33:58;;;;;;;;;;;;;;;9.42;65.36;95121.53;4228624;27;5885;-69
2023/12/01 15:36:01;;;;;;;;;;;;;;;9.42;65.34;95118.88;4234977;27;5710;-70
2023/12/01 15:38:06;;;;;;;;;;;;;;;9.40;65.30;95120.91;4222405;27;5671;-69
2023/12/01 15:40:09;;;;;;;;;;;;;;;9.40;64.96;95115.66;4225660;27;5896;-78
2023/12/01 15:42:12;;;;;;;;;;;;;;;9.36;65.03;95114.50;4228476;27;5646;-73
2023/12/01 15:44:16;;;;;;;;;;;;;;;9.36;65.32;95106.59;4230445;27;5927;-75
2023/12/01 15:46:19;;;;;;;;;;;;;;;9.33;64.82;95108.66;4223415;27;5752;-78
2023/12/01 15:48:22;;;;;;;;;;;;;;;9.31;65.08;95108.09;4233205;27;5721;-81
2023/12/01 15:50:25;;;;;;;;;;;;;;;9.32;64.85;95109.69;4236696;28;5737;-78
2023/12/01 15:52:28;;;;;;;;;;;;;;;9.33;64.89;95107.84;4236306;28;5784;-77
2023/12/01 15:54:32;;;;;;;;;;;;;;;9.29;64.63;95101.44;4228552;27;5778;-70
2023/12/01 15:56:35;;;;;;;;;;;;;;;9.27;64.97;95117.47;4221857;27;5790;-68
2023/12/01 15:58:37;;;;;;;;;;;;;;;9.26;64.88;95123.75;4222743;27;5886;-68
2023/12/01 16:00:42;;;;;;;;;;;;;;;9.24;64.56;95110.00;4225975;27;5850;-69
2023/12/01 16:02:45;;;;;;;;;;;;;;;9.16;64.19;95112.94;4225156;27;6396;-69
2023/12/01 16:04:48;;;;;;;;;;;;;;;9.10;64.38;95113.88;4225511;27;5744;-71
2023/12/01 16:06:51;;;;;;;;;;;;;;;9.01;64.08;95109.94;4238150;27;5639;-73
2023/12/01 16:08:53;;;;;;;;;;;;;;;8.98;64.23;95103.28;4234954;28;5636;-70
2023/12/01 16:10:58;;;;;;;;;;;;;;;8.97;63.49;95109.59;4236202;27;5658;-74
2023/12/01 16:13:01;;;;;;;;;;;;;;;8.88;63.65;95108.28;4231630;28;5667;-74
2023/12/01 16:15:05;;;;;;;;;;;;;;;8.84;63.78;95115.03;4235232;28;5816;-71
2023/12/01 16:17:22;;;;;;;;;;;;;;;8.83;62.74;95104.69;4230062;28;5784;-70
2023/12/01 16:19:25;;;;;;;;;;;;;;;8.75;62.96;95105.81;4234985;27;5953;-67
2023/12/01 16:21:28;;;;;;;;;;;;;;;8.67;62.88;95104.28;4234911;28;6897;-78
2023/12/01 16:23:32;;;;;;;;;;;;;;;8.61;62.10;95109.66;4235088;28;5638;-75
2023/12/01 16:25:33;;;;;;;;;;;;;;;8.50;62.41;95113.84;4235339;28;5710;-71
2023/12/01 16:27:38;;;;;;;;;;;;;;;8.41;63.03;95113.34;4234937;28;5649;-70
2023/12/01 16:29:41;;;;;;;;;;;;;;;8.43;63.47;95118.38;4228063;28;5719;-77
2023/12/01 16:31:44;;;;;;;;;;;;;;;8.44;62.93;95112.88;4234351;28;5301;-80
2023/12/01 16:33:47;;;;;;;;;;;;;;;8.47;63.22;95109.00;4231769;28;8248;-74
2023/12/01 16:35:50;;;;;;;;;;;;;;;8.49;63.43;95106.94;4230166;28;5748;-74
2023/12/01 16:37:53;;;;;;;;;;;;;;;8.52;62.89;95101.25;4266334;27;5686;-72
2023/12/01 16:39:56;;;;;;;;;;;;;;;8.51;63.13;95114.66;4232446;27;5760;-72
2023/12/01 16:41:59;;;;;;;;;;;;;;;8.56;63.31;95115.56;4234239;28;5662;-63
2023/12/01 16:44:03;;;;;;;;;;;;;;;8.57;62.97;95098.75;4234341;28;5657;-72
2023/12/01 16:46:06;;;;;;;;;;;;;;;8.61;63.42;95086.75;4234183;28;5739;-71
2023/12/01 16:48:09;;;;;;;;;;;;;;;8.64;62.90;95083.69;4230060;28;5714;-64
2023/12/01 16:50:12;;;;;;;;;;;;;;;8.67;62.99;95092.97;4228935;27;5867;-70
2023/12/01 16:52:14;;;;;;;;;;;;;;;8.65;63.34;95085.28;4233448;28;5634;-69
2023/12/01 16:54:17;;;;;;;;;;;;;;;8.63;62.85;95081.28;4231134;27;6454;-65
2023/12/01 16:56:21;;;;;;;;;;;;;;;8.64;62.89;95078.41;4233337;27;5675;-64
2023/12/01 16:58:24;;;;;;;;;;;;;;;8.64;62.86;95069.69;4231659;27;5856;-66
2023/12/01 17:00:30;;;;;;;;;;;;;;;8.61;62.96;95078.06;4231426;27;5733;-65
2023/12/01 17:02:33;;;;;;;;;;;;;;;8.59;63.21;95075.63;4231043;28;5809;-62
2023/12/01 17:04:35;;;;;;;;;;;;;;;8.61;63.24;95070.16;4230060;28;5772;-66
2023/12/01 17:06:39;;;;;;;;;;;;;;;8.61;62.97;95063.06;4223323;27;5659;-63
2023/12/01 17:08:41;;;;;;;;;;;;;;;8.60;63.02;95066.69;4226712;27;5790;-65
2023/12/01 17:10:44;;;;;;;;;;;;;;;8.60;63.12;95064.06;4231847;28;5942;-65
2023/12/01 17:12:47;;;;;;;;;;;;;;;8.61;63.00;95070.97;4224558;27;6701;-67
2023/12/01 17:14:50;;;;;;;;;;;;;;;8.63;63.35;95071.53;4234174;28;5605;-66
2023/12/01 17:16:54;;;;;;;;;;;;;;;8.65;63.23;95080.00;4230772;27;5848;-66
2023/12/01 17:18:57;;;;;;;;;;;;;;;8.68;63.30;95086.66;4220672;27;5660;-67
2023/12/01 17:21:00;;;;;;;;;;;;;;;8.69;63.36;95096.97;4232280;27;5771;-64
2023/12/01 17:23:03;;;;;;;;;;;;;;;8.70;62.84;95105.69;4231003;27;5754;-65